METAR Data
IDs: Format: Raw Decoded Include TAF

Data at: 2128 UTC 08 Aug 2020

KGYH 082047Z 00000KT 10SM FEW050 33/20 A3011
KGYH 081947Z 23003KT 10SM SCT050 32/20 A3012
KGYH 081847Z 25005KT 10SM SCT041 32/22 A3015
KGYH 081747Z 22005KT 10SM SCT032 31/22 A3016
KGYH 081647Z 00000KT 10SM SCT020 29/23 A3017
KGYH 081547Z 00000KT 10SM SCT015 28/23 A3018
KGYH 081447Z 00000KT 10SM SCT012 27/23 A3018
KGYH 081347Z 00000KT 10SM BKN009 25/23 A3018
KGYH 081247Z 00000KT 10SM BKN009 24/23 A3018
KGYH 081147Z 00000KT 10SM OVC008 23/23 A3017
KGYH 081047Z 00000KT 10SM OVC008 23/22 A3016
KGYH 081015Z AUTO 10SM OVC010 22/22 A3014 RMK AO2
KGYH 080955Z AUTO 10SM OVC010 22/22 A3014 RMK AO2
KGYH 080915Z AUTO 10SM BKN012 22/22 A3013 RMK AO2
KGYH 080855Z AUTO 10SM OVC012 22/21 A3013 RMK AO2
KGYH 080835Z AUTO 10SM BKN014 22/21 A3013 RMK AO2
KGYH 080815Z AUTO 10SM SCT014 22/21 A3013 RMK AO2
KGYH 080755Z AUTO 10SM CLR 22/21 A3012 RMK AO2
KGYH 080735Z AUTO 10SM CLR 22/21 A3012 RMK AO2
KGYH 080715Z AUTO 10SM CLR 22/21 A3012 RMK AO2
KGYH 080655Z AUTO 10SM CLR 22/21 A3012 RMK AO2
KGYH 080635Z AUTO 10SM CLR 23/21 A3011 RMK AO2
KGYH 080615Z AUTO 10SM CLR 22/21 A3012 RMK AO2
KGYH 080555Z AUTO 10SM CLR 22/21 A3012 RMK AO2
KGYH 080535Z AUTO 10SM CLR 23/21 A3012 RMK AO2
KGYH 080515Z AUTO 10SM CLR 23/21 A3013 RMK AO2
KGYH 080455Z AUTO 10SM CLR 24/21 A3013 RMK AO2
KGYH 080435Z AUTO 10SM SCT014 SCT028 24/21 A3014 RMK AO2
KGYH 080415Z AUTO 10SM BKN014 BKN028 25/21 A3014 RMK AO2 LTG DSNT S
KGYH 080355Z AUTO 10SM BKN016 BKN023 25/21 A3014 RMK AO2 LTG DSNT S
KGYH 080315Z AUTO 10SM SCT020 25/21 A3014 RMK AO2 LTG DSNT S
KGYH 080255Z AUTO 10SM CLR 25/22 A3014 RMK AO2 LTG DSNT E AND S
KGYH 080235Z AUTO 10SM CLR 25/22 A3014 RMK AO2 LTG DSNT SE
KGYH 080155Z AUTO 10SM CLR 27/23 A3012 RMK AO2 LTG DSNT E THRU SW
KGYH 080047Z 00000KT 10SM CLR 27/24 A3009 RMK LAST
KGYH 072347Z 00000KT 10SM CLR 28/24 A3008
KGYH 072247Z 00000KT 10SM SCT025 29/24 A3008
KGYH 072147Z 00000KT 10SM SCT025 29/23 A3007
KGYH 072047Z 00000KT 10SM SCT025 29/23 A3006
KGYH 071947Z COR 00000KT 10SM BKN020 28/24 A3008
KGYH 071847Z 00000KT 10SM BKN018 28/23 A3011
KGYH 071747Z 00000KT 10SM BKN015 28/23 A3012
KGYH 071729Z 00000KT 10SM BKN015 27/22 A3012
KGYH 071647Z 00000KT 10SM BKN008 26/22 A3013
KGYH 071547Z 00000KT 10SM OVC008 24/22 A3013
KGYH 071447Z 00000KT 10SM OVC008 24/22 A3013
KGYH 071347Z 14004KT 10SM OVC006 23/22 A3013
KGYH 071247Z VRB03KT 10SM BKN006 23/22 A3011
KGYH 071213Z 03004KT 10SM BKN008 23/22 A3010
KGYH 071147Z 03004KT 10SM SCT011 22/22 A3010
KGYH 071122Z 00000KT 10SM SCT009 22/22 A3010
KGYH 071047Z COR 00000KT 10SM BKN009 22/21 A3009
KGYH 071015Z AUTO 10SM OVC011 21/21 A3008 RMK AO2
KGYH 070955Z AUTO 10SM OVC011 21/21 A3008 RMK AO2
KGYH 070935Z AUTO 10SM BKN013 21/21 A3008 RMK AO2